sensor_id;sensor_type;location;lat;lon;timestamp;temperature;humidity
40932;DHT22;36257;46.052;12.540;2023-02-08T00:01:05;-2.00;80.60
40932;DHT22;36257;46.052;12.540;2023-02-08T00:03:30;-2.00;80.60
40932;DHT22;36257;46.052;12.540;2023-02-08T00:05:56;-2.10;80.70
40932;DHT22;36257;46.052;12.540;2023-02-08T00:08:22;-2.00;80.10
40932;DHT22;36257;46.052;12.540;2023-02-08T00:10:48;-2.00;79.60
40932;DHT22;36257;46.052;12.540;2023-02-08T00:13:14;-2.00;80.10
40932;DHT22;36257;46.052;12.540;2023-02-08T00:15:44;-2.00;80.40
40932;DHT22;36257;46.052;12.540;2023-02-08T00:18:10;-2.10;80.40
40932;DHT22;36257;46.052;12.540;2023-02-08T00:20:40;-2.10;80.60
40932;DHT22;36257;46.052;12.540;2023-02-08T00:23:06;-2.10;80.60
40932;DHT22;36257;46.052;12.540;2023-02-08T00:25:31;-2.10;80.20
40932;DHT22;36257;46.052;12.540;2023-02-08T00:27:57;-2.10;80.10
40932;DHT22;36257;46.052;12.540;2023-02-08T00:30:22;-2.10;80.00
40932;DHT22;36257;46.052;12.540;2023-02-08T00:32:48;-2.00;79.90
40932;DHT22;36257;46.052;12.540;2023-02-08T00:35:14;-1.90;79.50
40932;DHT22;36257;46.052;12.540;2023-02-08T00:37:40;-1.90;79.20
40932;DHT22;36257;46.052;12.540;2023-02-08T00:40:06;-1.90;79.20
40932;DHT22;36257;46.052;12.540;2023-02-08T00:42:32;-2.00;79.00
40932;DHT22;36257;46.052;12.540;2023-02-08T00:44:58;-2.00;78.80
40932;DHT22;36257;46.052;12.540;2023-02-08T00:47:23;-2.00;78.90
40932;DHT22;36257;46.052;12.540;2023-02-08T00:49:49;-1.90;79.40
40932;DHT22;36257;46.052;12.540;2023-02-08T00:52:15;-1.90;79.70
40932;DHT22;36257;46.052;12.540;2023-02-08T00:54:41;-2.00;79.80
40932;DHT22;36257;46.052;12.540;2023-02-08T00:57:07;-2.10;80.30
40932;DHT22;36257;46.052;12.540;2023-02-08T00:59:33;-2.10;79.80
40932;DHT22;36257;46.052;12.540;2023-02-08T01:01:58;-2.10;79.60
40932;DHT22;36257;46.052;12.540;2023-02-08T01:04:24;-2.10;79.40
40932;DHT22;36257;46.052;12.540;2023-02-08T01:06:50;-2.10;79.10
40932;DHT22;36257;46.052;12.540;2023-02-08T01:09:16;-2.10;79.10
40932;DHT22;36257;46.052;12.540;2023-02-08T01:11:42;-2.10;79.10
40932;DHT22;36257;46.052;12.540;2023-02-08T01:14:07;-2.20;79.80
40932;DHT22;36257;46.052;12.540;2023-02-08T01:16:33;-2.20;80.20
40932;DHT22;36257;46.052;12.540;2023-02-08T01:19:01;-2.20;79.90
40932;DHT22;36257;46.052;12.540;2023-02-08T01:21:30;-2.20;79.80
40932;DHT22;36257;46.052;12.540;2023-02-08T01:23:56;-2.20;80.00
40932;DHT22;36257;46.052;12.540;2023-02-08T01:26:23;-2.20;80.10
40932;DHT22;36257;46.052;12.540;2023-02-08T01:28:49;-2.30;80.30
40932;DHT22;36257;46.052;12.540;2023-02-08T01:31:18;-2.40;80.40
40932;DHT22;36257;46.052;12.540;2023-02-08T01:33:45;-2.50;80.50
40932;DHT22;36257;46.052;12.540;2023-02-08T01:36:11;-2.50;80.70
40932;DHT22;36257;46.052;12.540;2023-02-08T01:38:37;-2.50;81.00
40932;DHT22;36257;46.052;12.540;2023-02-08T01:41:05;-2.40;81.10
40932;DHT22;36257;46.052;12.540;2023-02-08T01:43:34;-2.40;81.00
40932;DHT22;36257;46.052;12.540;2023-02-08T01:46:19;-2.40;81.00
40932;DHT22;36257;46.052;12.540;2023-02-08T01:48:44;-2.40;81.10
40932;DHT22;36257;46.052;12.540;2023-02-08T01:51:15;-2.50;81.10
40932;DHT22;36257;46.052;12.540;2023-02-08T01:53:42;-2.50;81.10
40932;DHT22;36257;46.052;12.540;2023-02-08T01:56:12;-2.50;81.20
40932;DHT22;36257;46.052;12.540;2023-02-08T01:58:42;-2.50;81.40
40932;DHT22;36257;46.052;12.540;2023-02-08T02:01:11;-2.50;81.40
40932;DHT22;36257;46.052;12.540;2023-02-08T02:03:37;-2.50;81.30
40932;DHT22;36257;46.052;12.540;2023-02-08T02:06:16;-2.60;81.20
40932;DHT22;36257;46.052;12.540;2023-02-08T02:08:59;-2.60;81.50
40932;DHT22;36257;46.052;12.540;2023-02-08T02:11:26;-2.70;81.60
40932;DHT22;36257;46.052;12.540;2023-02-08T02:13:53;-2.70;81.90
40932;DHT22;36257;46.052;12.540;2023-02-08T02:16:19;-2.70;81.90
40932;DHT22;36257;46.052;12.540;2023-02-08T02:18:45;-2.60;81.60
40932;DHT22;36257;46.052;12.540;2023-02-08T02:34:56;-2.40;80.80
40932;DHT22;36257;46.052;12.540;2023-02-08T02:40:28;-2.60;81.70
40932;DHT22;36257;46.052;12.540;2023-02-08T02:43:10;-2.70;81.90
40932;DHT22;36257;46.052;12.540;2023-02-08T02:46:21;-2.70;82.00
40932;DHT22;36257;46.052;12.540;2023-02-08T02:49:23;-2.70;82.30
40932;DHT22;36257;46.052;12.540;2023-02-08T02:52:06;-2.70;82.40
40932;DHT22;36257;46.052;12.540;2023-02-08T02:54:41;-2.80;82.60
40932;DHT22;36257;46.052;12.540;2023-02-08T02:57:11;-2.70;82.70
40932;DHT22;36257;46.052;12.540;2023-02-08T02:59:39;-2.80;82.50
40932;DHT22;36257;46.052;12.540;2023-02-08T03:02:08;-2.90;82.80
40932;DHT22;36257;46.052;12.540;2023-02-08T03:13:00;-2.90;83.10
40932;DHT22;36257;46.052;12.540;2023-02-08T03:21:37;-3.10;83.10
40932;DHT22;36257;46.052;12.540;2023-02-08T03:24:18;-3.20;83.30
40932;DHT22;36257;46.052;12.540;2023-02-08T03:26:52;-3.10;83.30
40932;DHT22;36257;46.052;12.540;2023-02-08T03:29:43;-3.00;83.00
40932;DHT22;36257;46.052;12.540;2023-02-08T03:32:23;-3.00;82.50
40932;DHT22;36257;46.052;12.540;2023-02-08T03:37:26;-3.10;82.70
40932;DHT22;36257;46.052;12.540;2023-02-08T03:40:00;-3.00;82.80
40932;DHT22;36257;46.052;12.540;2023-02-08T03:42:27;-3.00;82.70
40932;DHT22;36257;46.052;12.540;2023-02-08T03:45:02;-3.10;82.60
40932;DHT22;36257;46.052;12.540;2023-02-08T03:47:32;-3.10;82.70
40932;DHT22;36257;46.052;12.540;2023-02-08T03:50:04;-3.10;82.60
40932;DHT22;36257;46.052;12.540;2023-02-08T03:52:31;-3.10;82.80
40932;DHT22;36257;46.052;12.540;2023-02-08T03:55:02;-3.10;82.70
40932;DHT22;36257;46.052;12.540;2023-02-08T03:57:36;-3.00;82.40
40932;DHT22;36257;46.052;12.540;2023-02-08T04:00:10;-3.00;82.70
40932;DHT22;36257;46.052;12.540;2023-02-08T04:02:42;-2.90;82.70
40932;DHT22;36257;46.052;12.540;2023-02-08T04:05:09;-2.90;82.30
40932;DHT22;36257;46.052;12.540;2023-02-08T04:07:35;-2.80;82.00
40932;DHT22;36257;46.052;12.540;2023-02-08T04:10:02;-2.80;81.90
40932;DHT22;36257;46.052;12.540;2023-02-08T04:12:28;-2.80;82.10
40932;DHT22;36257;46.052;12.540;2023-02-08T04:14:53;-2.90;82.50
40932;DHT22;36257;46.052;12.540;2023-02-08T04:17:19;-3.00;83.20
40932;DHT22;36257;46.052;12.540;2023-02-08T04:19:45;-3.20;83.30
40932;DHT22;36257;46.052;12.540;2023-02-08T04:22:10;-3.20;83.50
40932;DHT22;36257;46.052;12.540;2023-02-08T04:24:36;-3.30;83.80
40932;DHT22;36257;46.052;12.540;2023-02-08T04:27:01;-3.20;84.00
40932;DHT22;36257;46.052;12.540;2023-02-08T04:29:27;-3.20;84.10
40932;DHT22;36257;46.052;12.540;2023-02-08T04:31:53;-3.20;84.00
40932;DHT22;36257;46.052;12.540;2023-02-08T04:34:18;-3.20;84.10
40932;DHT22;36257;46.052;12.540;2023-02-08T04:36:44;-3.20;84.20
40932;DHT22;36257;46.052;12.540;2023-02-08T04:39:10;-3.20;83.80
40932;DHT22;36257;46.052;12.540;2023-02-08T04:41:35;-3.30;83.70
40932;DHT22;36257;46.052;12.540;2023-02-08T04:44:01;-3.30;83.50
40932;DHT22;36257;46.052;12.540;2023-02-08T04:46:26;-3.30;84.00
40932;DHT22;36257;46.052;12.540;2023-02-08T04:48:52;-3.30;84.20
40932;DHT22;36257;46.052;12.540;2023-02-08T04:51:18;-3.20;84.10
40932;DHT22;36257;46.052;12.540;2023-02-08T04:53:44;-3.20;83.80
40932;DHT22;36257;46.052;12.540;2023-02-08T04:56:09;-3.30;83.70
40932;DHT22;36257;46.052;12.540;2023-02-08T04:58:35;-3.40;84.20
40932;DHT22;36257;46.052;12.540;2023-02-08T05:01:05;-3.40;84.30
40932;DHT22;36257;46.052;12.540;2023-02-08T05:03:31;-3.50;84.50
40932;DHT22;36257;46.052;12.540;2023-02-08T05:06:00;-3.50;84.80
40932;DHT22;36257;46.052;12.540;2023-02-08T05:08:26;-3.50;84.80
40932;DHT22;36257;46.052;12.540;2023-02-08T05:10:51;-3.50;84.70
40932;DHT22;36257;46.052;12.540;2023-02-08T05:13:17;-3.50;85.20
40932;DHT22;36257;46.052;12.540;2023-02-08T05:15:42;-3.50;85.40
40932;DHT22;36257;46.052;12.540;2023-02-08T05:18:08;-3.40;85.20
40932;DHT22;36257;46.052;12.540;2023-02-08T05:20:34;-3.40;84.70
40932;DHT22;36257;46.052;12.540;2023-02-08T05:22:59;-3.40;84.80
40932;DHT22;36257;46.052;12.540;2023-02-08T05:25:25;-3.40;84.70
40932;DHT22;36257;46.052;12.540;2023-02-08T05:27:51;-3.40;84.30
40932;DHT22;36257;46.052;12.540;2023-02-08T05:30:16;-3.30;83.80
40932;DHT22;36257;46.052;12.540;2023-02-08T05:32:42;-3.20;83.50
40932;DHT22;36257;46.052;12.540;2023-02-08T05:35:07;-3.30;83.50
40932;DHT22;36257;46.052;12.540;2023-02-08T05:37:33;-3.30;83.80
40932;DHT22;36257;46.052;12.540;2023-02-08T05:39:59;-3.30;83.70
40932;DHT22;36257;46.052;12.540;2023-02-08T05:42:24;-3.40;84.00
40932;DHT22;36257;46.052;12.540;2023-02-08T05:44:50;-3.40;83.90
40932;DHT22;36257;46.052;12.540;2023-02-08T05:47:16;-3.50;84.20
40932;DHT22;36257;46.052;12.540;2023-02-08T05:49:42;-3.50;84.20
40932;DHT22;36257;46.052;12.540;2023-02-08T05:52:08;-3.50;84.60
40932;DHT22;36257;46.052;12.540;2023-02-08T05:54:33;-3.70;85.00
40932;DHT22;36257;46.052;12.540;2023-02-08T05:56:59;-3.60;85.10
40932;DHT22;36257;46.052;12.540;2023-02-08T05:59:25;-3.50;84.90
40932;DHT22;36257;46.052;12.540;2023-02-08T06:01:50;-3.30;84.50
40932;DHT22;36257;46.052;12.540;2023-02-08T06:04:16;-3.20;84.30
40932;DHT22;36257;46.052;12.540;2023-02-08T06:06:42;-3.10;84.10
40932;DHT22;36257;46.052;12.540;2023-02-08T06:09:07;-3.20;84.10
40932;DHT22;36257;46.052;12.540;2023-02-08T06:11:33;-3.30;84.60
40932;DHT22;36257;46.052;12.540;2023-02-08T06:14:00;-3.30;84.90
40932;DHT22;36257;46.052;12.540;2023-02-08T06:16:26;-3.20;84.70
40932;DHT22;36257;46.052;12.540;2023-02-08T06:18:52;-3.20;84.50
40932;DHT22;36257;46.052;12.540;2023-02-08T06:21:17;-3.30;84.50
40932;DHT22;36257;46.052;12.540;2023-02-08T06:23:43;-3.40;84.60
40932;DHT22;36257;46.052;12.540;2023-02-08T06:26:09;-3.40;84.60
40932;DHT22;36257;46.052;12.540;2023-02-08T06:28:34;-3.40;84.70
40932;DHT22;36257;46.052;12.540;2023-02-08T06:31:00;-3.50;84.90
40932;DHT22;36257;46.052;12.540;2023-02-08T06:33:25;-3.40;85.20
40932;DHT22;36257;46.052;12.540;2023-02-08T06:35:51;-3.50;84.80
40932;DHT22;36257;46.052;12.540;2023-02-08T06:38:17;-3.50;85.00
40932;DHT22;36257;46.052;12.540;2023-02-08T06:40:45;-3.50;85.10
40932;DHT22;36257;46.052;12.540;2023-02-08T06:43:11;-3.50;84.90
40932;DHT22;36257;46.052;12.540;2023-02-08T06:45:37;-3.50;84.80
40932;DHT22;36257;46.052;12.540;2023-02-08T06:48:02;-3.50;85.60
40932;DHT22;36257;46.052;12.540;2023-02-08T06:50:28;-3.40;85.30
40932;DHT22;36257;46.052;12.540;2023-02-08T06:52:54;-3.40;84.90
40932;DHT22;36257;46.052;12.540;2023-02-08T06:55:20;-3.30;84.60
40932;DHT22;36257;46.052;12.540;2023-02-08T06:57:45;-3.20;84.40
40932;DHT22;36257;46.052;12.540;2023-02-08T07:00:11;-3.10;84.10
40932;DHT22;36257;46.052;12.540;2023-02-08T07:02:37;-3.10;84.00
40932;DHT22;36257;46.052;12.540;2023-02-08T07:05:03;-3.00;84.50
40932;DHT22;36257;46.052;12.540;2023-02-08T07:07:29;-2.90;84.50
40932;DHT22;36257;46.052;12.540;2023-02-08T07:09:54;-2.80;84.30
40932;DHT22;36257;46.052;12.540;2023-02-08T07:12:20;-2.70;84.30
40932;DHT22;36257;46.052;12.540;2023-02-08T07:14:46;-2.60;83.10
40932;DHT22;36257;46.052;12.540;2023-02-08T07:17:12;-2.40;82.10
40932;DHT22;36257;46.052;12.540;2023-02-08T07:19:39;-2.30;82.20
40932;DHT22;36257;46.052;12.540;2023-02-08T07:22:05;-2.10;82.90
40932;DHT22;36257;46.052;12.540;2023-02-08T07:24:38;-1.90;82.50
40932;DHT22;36257;46.052;12.540;2023-02-08T07:27:04;-1.70;81.90
40932;DHT22;36257;46.052;12.540;2023-02-08T07:29:32;-1.60;81.10
40932;DHT22;36257;46.052;12.540;2023-02-08T07:31:59;-1.40;81.00
40932;DHT22;36257;46.052;12.540;2023-02-08T07:34:27;-1.20;80.20
40932;DHT22;36257;46.052;12.540;2023-02-08T07:36:53;-1.00;79.70
40932;DHT22;36257;46.052;12.540;2023-02-08T07:39:19;-0.80;79.30
40932;DHT22;36257;46.052;12.540;2023-02-08T07:41:44;-0.70;78.80
40932;DHT22;36257;46.052;12.540;2023-02-08T07:44:10;-0.70;78.60
40932;DHT22;36257;46.052;12.540;2023-02-08T07:46:37;-0.70;78.70
40932;DHT22;36257;46.052;12.540;2023-02-08T07:49:03;-0.50;78.40
40932;DHT22;36257;46.052;12.540;2023-02-08T07:51:29;-0.30;78.10
40932;DHT22;36257;46.052;12.540;2023-02-08T07:53:55;-0.10;77.90
40932;DHT22;36257;46.052;12.540;2023-02-08T07:56:20;0.10;77.10
40932;DHT22;36257;46.052;12.540;2023-02-08T07:58:46;0.30;76.50
40932;DHT22;36257;46.052;12.540;2023-02-08T08:01:11;0.50;76.00
40932;DHT22;36257;46.052;12.540;2023-02-08T08:03:37;0.70;75.90
40932;DHT22;36257;46.052;12.540;2023-02-08T08:06:03;0.90;75.50
40932;DHT22;36257;46.052;12.540;2023-02-08T08:08:28;1.20;74.90
40932;DHT22;36257;46.052;12.540;2023-02-08T08:10:54;1.40;74.10
40932;DHT22;36257;46.052;12.540;2023-02-08T08:13:22;1.50;73.40
40932;DHT22;36257;46.052;12.540;2023-02-08T08:15:47;1.50;73.10
40932;DHT22;36257;46.052;12.540;2023-02-08T08:18:13;1.50;72.80
40932;DHT22;36257;46.052;12.540;2023-02-08T08:20:39;1.60;72.10
40932;DHT22;36257;46.052;12.540;2023-02-08T08:23:05;1.80;72.60
40932;DHT22;36257;46.052;12.540;2023-02-08T08:25:30;2.10;72.50
40932;DHT22;36257;46.052;12.540;2023-02-08T08:27:56;2.50;71.80
40932;DHT22;36257;46.052;12.540;2023-02-08T08:30:22;2.80;70.80
40932;DHT22;36257;46.052;12.540;2023-02-08T08:32:48;3.10;69.90
40932;DHT22;36257;46.052;12.540;2023-02-08T08:35:13;3.40;67.50
40932;DHT22;36257;46.052;12.540;2023-02-08T08:37:39;3.60;66.90
40932;DHT22;36257;46.052;12.540;2023-02-08T08:40:06;3.50;66.60
40932;DHT22;36257;46.052;12.540;2023-02-08T08:42:32;3.60;66.70
40932;DHT22;36257;46.052;12.540;2023-02-08T08:44:58;3.70;66.20
40932;DHT22;36257;46.052;12.540;2023-02-08T08:47:24;3.60;66.50
40932;DHT22;36257;46.052;12.540;2023-02-08T08:49:49;3.90;66.60
40932;DHT22;36257;46.052;12.540;2023-02-08T08:52:15;4.10;65.70
40932;DHT22;36257;46.052;12.540;2023-02-08T08:54:41;4.30;65.50
40932;DHT22;36257;46.052;12.540;2023-02-08T08:57:06;4.50;64.30
40932;DHT22;36257;46.052;12.540;2023-02-08T08:59:32;4.50;64.80
40932;DHT22;36257;46.052;12.540;2023-02-08T09:01:58;4.60;64.90
40932;DHT22;36257;46.052;12.540;2023-02-08T09:04:23;4.70;64.70
40932;DHT22;36257;46.052;12.540;2023-02-08T09:06:50;4.60;64.20
40932;DHT22;36257;46.052;12.540;2023-02-08T09:09:16;4.70;64.20
40932;DHT22;36257;46.052;12.540;2023-02-08T09:11:42;4.70;62.90
40932;DHT22;36257;46.052;12.540;2023-02-08T09:14:08;4.80;64.80
40932;DHT22;36257;46.052;12.540;2023-02-08T09:16:34;5.00;65.20
40932;DHT22;36257;46.052;12.540;2023-02-08T09:19:04;4.90;65.10
40932;DHT22;36257;46.052;12.540;2023-02-08T09:21:30;4.90;64.80
40932;DHT22;36257;46.052;12.540;2023-02-08T09:23:56;5.10;66.40
40932;DHT22;36257;46.052;12.540;2023-02-08T09:26:22;5.20;65.70
40932;DHT22;36257;46.052;12.540;2023-02-08T09:28:49;5.10;64.80
40932;DHT22;36257;46.052;12.540;2023-02-08T09:31:22;5.00;66.50
40932;DHT22;36257;46.052;12.540;2023-02-08T09:33:49;4.90;66.70
40932;DHT22;36257;46.052;12.540;2023-02-08T09:36:15;4.90;66.30
40932;DHT22;36257;46.052;12.540;2023-02-08T09:38:41;5.00;65.90
40932;DHT22;36257;46.052;12.540;2023-02-08T09:41:17;5.10;66.40
40932;DHT22;36257;46.052;12.540;2023-02-08T09:43:56;5.20;65.90
40932;DHT22;36257;46.052;12.540;2023-02-08T09:46:31;5.40;64.70
40932;DHT22;36257;46.052;12.540;2023-02-08T09:49:01;5.60;64.80
40932;DHT22;36257;46.052;12.540;2023-02-08T09:51:32;5.80;64.40
40932;DHT22;36257;46.052;12.540;2023-02-08T09:54:07;5.80;63.80
40932;DHT22;36257;46.052;12.540;2023-02-08T09:56:40;6.10;63.50
40932;DHT22;36257;46.052;12.540;2023-02-08T09:59:20;6.30;63.50
40932;DHT22;36257;46.052;12.540;2023-02-08T10:01:48;6.30;62.20
40932;DHT22;36257;46.052;12.540;2023-02-08T10:07:14;6.90;61.50
40932;DHT22;36257;46.052;12.540;2023-02-08T10:09:40;7.20;60.30
40932;DHT22;36257;46.052;12.540;2023-02-08T10:12:21;7.00;58.30
40932;DHT22;36257;46.052;12.540;2023-02-08T10:14:53;6.90;60.00
40932;DHT22;36257;46.052;12.540;2023-02-08T10:17:54;6.50;59.80
40932;DHT22;36257;46.052;12.540;2023-02-08T10:25:57;7.80;58.80
40932;DHT22;36257;46.052;12.540;2023-02-08T10:34:34;8.00;57.60
40932;DHT22;36257;46.052;12.540;2023-02-08T10:37:17;7.80;57.60
40932;DHT22;36257;46.052;12.540;2023-02-08T10:39:44;7.70;56.60
40932;DHT22;36257;46.052;12.540;2023-02-08T10:42:13;7.90;58.90
40932;DHT22;36257;46.052;12.540;2023-02-08T10:45:03;8.20;57.60
40932;DHT22;36257;46.052;12.540;2023-02-08T10:52:58;9.00;54.80
40932;DHT22;36257;46.052;12.540;2023-02-08T10:55:23;8.40;55.90
40932;DHT22;36257;46.052;12.540;2023-02-08T10:57:51;8.20;56.60
40932;DHT22;36257;46.052;12.540;2023-02-08T11:00:23;8.00;55.80
40932;DHT22;36257;46.052;12.540;2023-02-08T11:02:53;8.10;56.20
40932;DHT22;36257;46.052;12.540;2023-02-08T11:05:31;8.20;57.60
40932;DHT22;36257;46.052;12.540;2023-02-08T11:08:03;8.50;56.00
40932;DHT22;36257;46.052;12.540;2023-02-08T11:10:29;8.70;56.70
40932;DHT22;36257;46.052;12.540;2023-02-08T11:15:56;9.40;55.70
40932;DHT22;36257;46.052;12.540;2023-02-08T11:18:36;9.60;54.50
40932;DHT22;36257;46.052;12.540;2023-02-08T11:21:07;9.50;53.60
40932;DHT22;36257;46.052;12.540;2023-02-08T11:23:40;9.20;53.80
40932;DHT22;36257;46.052;12.540;2023-02-08T11:26:32;9.00;53.80
40932;DHT22;36257;46.052;12.540;2023-02-08T11:29:13;9.30;54.80
40932;DHT22;36257;46.052;12.540;2023-02-08T11:36:53;9.60;53.80
40932;DHT22;36257;46.052;12.540;2023-02-08T11:41:55;10.10;52.10
40932;DHT22;36257;46.052;12.540;2023-02-08T11:44:29;10.00;52.40
40932;DHT22;36257;46.052;12.540;2023-02-08T11:46:58;9.80;52.10
40932;DHT22;36257;46.052;12.540;2023-02-08T11:49:40;9.50;53.10
40932;DHT22;36257;46.052;12.540;2023-02-08T11:52:35;10.00;53.90
40932;DHT22;36257;46.052;12.540;2023-02-08T12:00:29;10.00;52.50
40932;DHT22;36257;46.052;12.540;2023-02-08T12:03:23;10.40;51.90
40932;DHT22;36257;46.052;12.540;2023-02-08T12:11:41;11.00;50.80
40932;DHT22;36257;46.052;12.540;2023-02-08T12:14:21;11.50;49.90
40932;DHT22;36257;46.052;12.540;2023-02-08T12:22:29;11.40;48.80
40932;DHT22;36257;46.052;12.540;2023-02-08T12:36:03;10.10;52.50
40932;DHT22;36257;46.052;12.540;2023-02-08T12:38:57;10.30;51.30
40932;DHT22;36257;46.052;12.540;2023-02-08T12:47:02;10.20;51.30
40932;DHT22;36257;46.052;12.540;2023-02-08T12:52:37;9.90;51.40
40932;DHT22;36257;46.052;12.540;2023-02-08T12:57:32;9.20;53.10
40932;DHT22;36257;46.052;12.540;2023-02-08T13:00:23;9.30;52.60
40932;DHT22;36257;46.052;12.540;2023-02-08T13:05:51;9.60;52.20
40932;DHT22;36257;46.052;12.540;2023-02-08T13:08:32;9.80;52.80
40932;DHT22;36257;46.052;12.540;2023-02-08T13:11:02;9.60;52.10
40932;DHT22;36257;46.052;12.540;2023-02-08T13:13:33;9.30;52.80
40932;DHT22;36257;46.052;12.540;2023-02-08T13:16:20;9.30;52.90
40932;DHT22;36257;46.052;12.540;2023-02-08T13:18:53;9.20;52.90
40932;DHT22;36257;46.052;12.540;2023-02-08T13:21:25;9.40;51.80
40932;DHT22;36257;46.052;12.540;2023-02-08T13:23:53;9.50;52.00
40932;DHT22;36257;46.052;12.540;2023-02-08T13:28:51;9.20;52.80
40932;DHT22;36257;46.052;12.540;2023-02-08T13:31:29;9.20;52.80
40932;DHT22;36257;46.052;12.540;2023-02-08T13:34:00;9.00;53.10
40932;DHT22;36257;46.052;12.540;2023-02-08T13:36:32;8.90;53.00
40932;DHT22;36257;46.052;12.540;2023-02-08T13:38:59;9.00;53.10
40932;DHT22;36257;46.052;12.540;2023-02-08T13:41:26;9.10;52.70
40932;DHT22;36257;46.052;12.540;2023-02-08T13:43:56;9.20;52.40
40932;DHT22;36257;46.052;12.540;2023-02-08T13:46:25;8.90;51.90
40932;DHT22;36257;46.052;12.540;2023-02-08T13:48:57;9.00;51.60
40932;DHT22;36257;46.052;12.540;2023-02-08T14:04:41;8.60;52.50
40932;DHT22;36257;46.052;12.540;2023-02-08T14:12:14;8.70;52.10
40932;DHT22;36257;46.052;12.540;2023-02-08T14:14:40;9.00;52.10
40932;DHT22;36257;46.052;12.540;2023-02-08T14:17:19;9.20;51.80
40932;DHT22;36257;46.052;12.540;2023-02-08T14:20:02;9.20;51.70
40932;DHT22;36257;46.052;12.540;2023-02-08T14:22:46;8.70;51.60
40932;DHT22;36257;46.052;12.540;2023-02-08T14:25:20;8.30;52.00
40932;DHT22;36257;46.052;12.540;2023-02-08T14:27:51;8.30;52.70
40932;DHT22;36257;46.052;12.540;2023-02-08T14:32:51;7.50;52.70
40932;DHT22;36257;46.052;12.540;2023-02-08T14:35:24;7.00;53.20
40932;DHT22;36257;46.052;12.540;2023-02-08T14:40:54;6.30;55.00
40932;DHT22;36257;46.052;12.540;2023-02-08T14:43:38;6.20;54.90
40932;DHT22;36257;46.052;12.540;2023-02-08T14:49:25;5.90;55.80
40932;DHT22;36257;46.052;12.540;2023-02-08T14:51:57;5.90;56.90
40932;DHT22;36257;46.052;12.540;2023-02-08T14:54:33;5.70;56.90
40932;DHT22;36257;46.052;12.540;2023-02-08T14:57:03;5.70;57.00
40932;DHT22;36257;46.052;12.540;2023-02-08T14:59:33;5.70;57.00
40932;DHT22;36257;46.052;12.540;2023-02-08T15:02:02;5.60;57.00
40932;DHT22;36257;46.052;12.540;2023-02-08T15:04:28;5.50;57.20
40932;DHT22;36257;46.052;12.540;2023-02-08T15:07:34;5.40;57.70
40932;DHT22;36257;46.052;12.540;2023-02-08T15:10:10;5.30;57.80
40932;DHT22;36257;46.052;12.540;2023-02-08T15:12:38;5.10;58.70
40932;DHT22;36257;46.052;12.540;2023-02-08T15:15:05;4.90;58.40
40932;DHT22;36257;46.052;12.540;2023-02-08T15:17:45;4.80;58.40
40932;DHT22;36257;46.052;12.540;2023-02-08T15:20:22;4.80;59.50
40932;DHT22;36257;46.052;12.540;2023-02-08T15:23:15;4.80;59.50
40932;DHT22;36257;46.052;12.540;2023-02-08T15:25:42;4.90;59.30
40932;DHT22;36257;46.052;12.540;2023-02-08T15:28:22;4.90;58.70
40932;DHT22;36257;46.052;12.540;2023-02-08T15:30:54;4.90;59.40
40932;DHT22;36257;46.052;12.540;2023-02-08T15:33:21;4.80;58.50
40932;DHT22;36257;46.052;12.540;2023-02-08T15:36:02;4.60;58.80
40932;DHT22;36257;46.052;12.540;2023-02-08T15:38:29;4.40;59.50
40932;DHT22;36257;46.052;12.540;2023-02-08T15:41:08;4.30;59.80
40932;DHT22;36257;46.052;12.540;2023-02-08T15:43:35;4.30;59.90
40932;DHT22;36257;46.052;12.540;2023-02-08T15:46:05;4.30;60.20
40932;DHT22;36257;46.052;12.540;2023-02-08T15:48:32;4.30;60.10
40932;DHT22;36257;46.052;12.540;2023-02-08T15:50:59;4.20;59.90
40932;DHT22;36257;46.052;12.540;2023-02-08T15:53:26;4.10;60.50
40932;DHT22;36257;46.052;12.540;2023-02-08T15:55:56;4.00;60.40
40932;DHT22;36257;46.052;12.540;2023-02-08T15:58:34;3.90;60.70
40932;DHT22;36257;46.052;12.540;2023-02-08T16:01:04;3.80;61.30
40932;DHT22;36257;46.052;12.540;2023-02-08T16:03:32;3.70;60.70
40932;DHT22;36257;46.052;12.540;2023-02-08T16:06:02;3.50;60.80
40932;DHT22;36257;46.052;12.540;2023-02-08T16:08:34;3.40;60.70
40932;DHT22;36257;46.052;12.540;2023-02-08T16:11:11;3.40;61.10
40932;DHT22;36257;46.052;12.540;2023-02-08T16:13:38;3.40;61.00
40932;DHT22;36257;46.052;12.540;2023-02-08T16:16:35;3.50;61.00
40932;DHT22;36257;46.052;12.540;2023-02-08T16:21:40;3.40;60.90
40932;DHT22;36257;46.052;12.540;2023-02-08T16:24:18;3.40;61.10
40932;DHT22;36257;46.052;12.540;2023-02-08T16:32:05;3.00;61.70
40932;DHT22;36257;46.052;12.540;2023-02-08T16:34:36;2.90;61.30
40932;DHT22;36257;46.052;12.540;2023-02-08T16:37:04;2.80;61.60
40932;DHT22;36257;46.052;12.540;2023-02-08T16:42:29;2.70;62.30
40932;DHT22;36257;46.052;12.540;2023-02-08T16:50:33;2.60;62.10
40932;DHT22;36257;46.052;12.540;2023-02-08T16:53:01;2.50;61.60
40932;DHT22;36257;46.052;12.540;2023-02-08T16:55:31;2.30;62.30
40932;DHT22;36257;46.052;12.540;2023-02-08T16:57:57;2.30;62.60
40932;DHT22;36257;46.052;12.540;2023-02-08T17:02:53;2.20;62.50
40932;DHT22;36257;46.052;12.540;2023-02-08T17:05:21;2.20;62.40
40932;DHT22;36257;46.052;12.540;2023-02-08T17:07:48;2.20;62.50
40932;DHT22;36257;46.052;12.540;2023-02-08T17:12:47;2.20;62.20
40932;DHT22;36257;46.052;12.540;2023-02-08T17:15:13;2.20;62.60
40932;DHT22;36257;46.052;12.540;2023-02-08T17:17:39;2.20;62.70
40932;DHT22;36257;46.052;12.540;2023-02-08T17:20:33;2.00;62.60
40932;DHT22;36257;46.052;12.540;2023-02-08T17:22:58;2.00;62.60
40932;DHT22;36257;46.052;12.540;2023-02-08T17:25:24;2.00;62.60
40932;DHT22;36257;46.052;12.540;2023-02-08T17:27:56;2.00;62.80
40932;DHT22;36257;46.052;12.540;2023-02-08T17:30:35;2.00;62.80
40932;DHT22;36257;46.052;12.540;2023-02-08T17:33:04;2.00;63.30
40932;DHT22;36257;46.052;12.540;2023-02-08T17:35:31;2.10;62.90
40932;DHT22;36257;46.052;12.540;2023-02-08T17:37:58;2.10;62.80
40932;DHT22;36257;46.052;12.540;2023-02-08T17:40:27;2.10;62.90
40932;DHT22;36257;46.052;12.540;2023-02-08T17:42:55;2.00;63.20
40932;DHT22;36257;46.052;12.540;2023-02-08T17:45:21;2.00;63.60
40932;DHT22;36257;46.052;12.540;2023-02-08T17:47:47;2.00;63.60
40932;DHT22;36257;46.052;12.540;2023-02-08T17:50:14;1.90;63.50
40932;DHT22;36257;46.052;12.540;2023-02-08T17:52:41;1.80;63.70
40932;DHT22;36257;46.052;12.540;2023-02-08T17:55:08;1.80;63.60
40932;DHT22;36257;46.052;12.540;2023-02-08T17:57:36;1.80;63.70
40932;DHT22;36257;46.052;12.540;2023-02-08T18:00:06;1.70;64.10
40932;DHT22;36257;46.052;12.540;2023-02-08T18:02:34;1.60;63.60
40932;DHT22;36257;46.052;12.540;2023-02-08T18:04:59;1.60;63.90
40932;DHT22;36257;46.052;12.540;2023-02-08T18:07:25;1.60;63.80
40932;DHT22;36257;46.052;12.540;2023-02-08T18:09:51;1.60;63.90
40932;DHT22;36257;46.052;12.540;2023-02-08T18:12:17;1.60;63.70
40932;DHT22;36257;46.052;12.540;2023-02-08T18:14:42;1.70;63.50